Terminal Aerodrome Forecast
Issued by NWS

Home | Current Version | Previous Version | Graphics & Text | Print | Product List | Glossary On
Versions: 1 2 3 4 5 6 7 8 9 10 11 12 13 14 15 16 17 18 19
000
FTUS43 KICT 231122
TAFSLN
TAF
KSLN 231122Z 2312/2412 01017G25KT P6SM VCSH SCT030 BKN100
      TEMPO 2312/2314 BKN030
     FM231600 01016G23KT P6SM SCT120
     FM240000 36010KT P6SM SCT200
     FM240300 35006KT P6SM SKC=

USA.gov is the U.S. government's official web portal to all federal, state and local government web resources and services.